sensor_id;sensor_type;location;lat;lon;timestamp;P1;durP1;ratioP1;P2;durP2;ratioP2
7031;SDS011;3557;48.880;8.328;2023-03-31T00:02:24;5.32;;;2.15;;
7031;SDS011;3557;48.880;8.328;2023-03-31T00:04:54;5.75;;;1.90;;
7031;SDS011;3557;48.880;8.328;2023-03-31T00:07:24;5.50;;;1.67;;
7031;SDS011;3557;48.880;8.328;2023-03-31T00:09:51;7.07;;;1.80;;
7031;SDS011;3557;48.880;8.328;2023-03-31T00:12:22;4.40;;;1.80;;
7031;SDS011;3557;48.880;8.328;2023-03-31T00:14:49;5.57;;;1.88;;
7031;SDS011;3557;48.880;8.328;2023-03-31T00:17:18;6.28;;;1.92;;
7031;SDS011;3557;48.880;8.328;2023-03-31T00:19:45;7.00;;;2.33;;
7031;SDS011;3557;48.880;8.328;2023-03-31T00:22:14;4.93;;;1.80;;
7031;SDS011;3557;48.880;8.328;2023-03-31T00:24:43;4.55;;;2.03;;
7031;SDS011;3557;48.880;8.328;2023-03-31T00:27:10;6.78;;;1.83;;
7031;SDS011;3557;48.880;8.328;2023-03-31T00:29:38;4.30;;;2.08;;
7031;SDS011;3557;48.880;8.328;2023-03-31T00:32:07;6.10;;;1.90;;
7031;SDS011;3557;48.880;8.328;2023-03-31T00:34:37;4.00;;;2.08;;
7031;SDS011;3557;48.880;8.328;2023-03-31T00:37:04;4.85;;;2.20;;
7031;SDS011;3557;48.880;8.328;2023-03-31T00:39:34;4.22;;;1.80;;
7031;SDS011;3557;48.880;8.328;2023-03-31T00:42:02;9.13;;;2.20;;
7031;SDS011;3557;48.880;8.328;2023-03-31T00:44:34;5.57;;;1.85;;
7031;SDS011;3557;48.880;8.328;2023-03-31T00:47:05;5.57;;;2.10;;
7031;SDS011;3557;48.880;8.328;2023-03-31T00:49:39;3.45;;;1.85;;
7031;SDS011;3557;48.880;8.328;2023-03-31T00:52:09;6.07;;;1.98;;
7031;SDS011;3557;48.880;8.328;2023-03-31T00:54:42;6.75;;;1.90;;
7031;SDS011;3557;48.880;8.328;2023-03-31T00:57:11;6.32;;;2.30;;
7031;SDS011;3557;48.880;8.328;2023-03-31T00:59:41;6.15;;;2.00;;
7031;SDS011;3557;48.880;8.328;2023-03-31T01:02:12;4.13;;;1.77;;
7031;SDS011;3557;48.880;8.328;2023-03-31T01:04:43;5.68;;;1.85;;
7031;SDS011;3557;48.880;8.328;2023-03-31T01:07:17;2.95;;;1.67;;
7031;SDS011;3557;48.880;8.328;2023-03-31T01:09:48;4.68;;;1.75;;
7031;SDS011;3557;48.880;8.328;2023-03-31T01:12:19;6.00;;;1.95;;
7031;SDS011;3557;48.880;8.328;2023-03-31T01:14:49;6.22;;;2.13;;
7031;SDS011;3557;48.880;8.328;2023-03-31T01:17:17;7.22;;;2.10;;
7031;SDS011;3557;48.880;8.328;2023-03-31T01:19:51;3.95;;;1.80;;
7031;SDS011;3557;48.880;8.328;2023-03-31T01:25:53;8.25;;;1.90;;
7031;SDS011;3557;48.880;8.328;2023-03-31T01:28:37;6.22;;;1.98;;
7031;SDS011;3557;48.880;8.328;2023-03-31T01:31:19;7.45;;;1.90;;
7031;SDS011;3557;48.880;8.328;2023-03-31T01:34:18;7.47;;;2.25;;
7031;SDS011;3557;48.880;8.328;2023-03-31T01:40:35;4.38;;;1.77;;
7031;SDS011;3557;48.880;8.328;2023-03-31T01:43:36;10.20;;;2.20;;
7031;SDS011;3557;48.880;8.328;2023-03-31T01:46:09;5.80;;;2.20;;
7031;SDS011;3557;48.880;8.328;2023-03-31T01:48:45;4.65;;;2.00;;
7031;SDS011;3557;48.880;8.328;2023-03-31T01:51:18;10.55;;;2.00;;
7031;SDS011;3557;48.880;8.328;2023-03-31T01:53:53;5.95;;;2.00;;
7031;SDS011;3557;48.880;8.328;2023-03-31T01:56:29;7.03;;;2.20;;
7031;SDS011;3557;48.880;8.328;2023-03-31T01:58:58;4.90;;;1.88;;
7031;SDS011;3557;48.880;8.328;2023-03-31T02:01:28;7.00;;;2.10;;
7031;SDS011;3557;48.880;8.328;2023-03-31T02:04:00;5.65;;;2.30;;
7031;SDS011;3557;48.880;8.328;2023-03-31T02:06:32;6.30;;;2.13;;
7031;SDS011;3557;48.880;8.328;2023-03-31T02:09:05;7.05;;;2.38;;
7031;SDS011;3557;48.880;8.328;2023-03-31T02:11:37;5.38;;;2.38;;
7031;SDS011;3557;48.880;8.328;2023-03-31T02:14:07;6.47;;;2.08;;
7031;SDS011;3557;48.880;8.328;2023-03-31T02:16:37;6.72;;;2.50;;
7031;SDS011;3557;48.880;8.328;2023-03-31T02:19:11;7.50;;;2.22;;
7031;SDS011;3557;48.880;8.328;2023-03-31T02:21:43;7.10;;;2.25;;
7031;SDS011;3557;48.880;8.328;2023-03-31T02:24:13;3.78;;;2.10;;
7031;SDS011;3557;48.880;8.328;2023-03-31T02:26:43;4.43;;;2.03;;
7031;SDS011;3557;48.880;8.328;2023-03-31T02:29:13;7.80;;;2.17;;
7031;SDS011;3557;48.880;8.328;2023-03-31T02:31:43;3.60;;;1.95;;
7031;SDS011;3557;48.880;8.328;2023-03-31T02:34:13;7.72;;;2.38;;
7031;SDS011;3557;48.880;8.328;2023-03-31T02:36:41;6.75;;;2.28;;
7031;SDS011;3557;48.880;8.328;2023-03-31T02:39:11;7.15;;;1.92;;
7031;SDS011;3557;48.880;8.328;2023-03-31T02:41:42;5.45;;;1.98;;
7031;SDS011;3557;48.880;8.328;2023-03-31T02:44:10;3.83;;;1.90;;
7031;SDS011;3557;48.880;8.328;2023-03-31T02:46:38;5.97;;;2.00;;
7031;SDS011;3557;48.880;8.328;2023-03-31T02:49:06;5.10;;;2.00;;
7031;SDS011;3557;48.880;8.328;2023-03-31T02:51:41;5.47;;;2.10;;
7031;SDS011;3557;48.880;8.328;2023-03-31T02:54:54;4.78;;;1.75;;
7031;SDS011;3557;48.880;8.328;2023-03-31T02:57:56;3.67;;;1.98;;
7031;SDS011;3557;48.880;8.328;2023-03-31T03:00:56;5.25;;;2.05;;
7031;SDS011;3557;48.880;8.328;2023-03-31T03:03:46;9.70;;;2.30;;
7031;SDS011;3557;48.880;8.328;2023-03-31T03:06:27;4.45;;;1.85;;
7031;SDS011;3557;48.880;8.328;2023-03-31T03:09:16;5.72;;;2.40;;
7031;SDS011;3557;48.880;8.328;2023-03-31T03:11:56;5.05;;;2.13;;
7031;SDS011;3557;48.880;8.328;2023-03-31T03:14:36;4.18;;;2.42;;
7031;SDS011;3557;48.880;8.328;2023-03-31T03:17:08;4.10;;;2.17;;
7031;SDS011;3557;48.880;8.328;2023-03-31T03:19:37;3.80;;;2.30;;
7031;SDS011;3557;48.880;8.328;2023-03-31T03:22:07;5.50;;;2.30;;
7031;SDS011;3557;48.880;8.328;2023-03-31T03:24:35;6.00;;;2.30;;
7031;SDS011;3557;48.880;8.328;2023-03-31T03:27:04;6.07;;;2.38;;
7031;SDS011;3557;48.880;8.328;2023-03-31T03:29:31;7.03;;;2.30;;
7031;SDS011;3557;48.880;8.328;2023-03-31T03:32:00;5.32;;;2.28;;
7031;SDS011;3557;48.880;8.328;2023-03-31T03:34:27;7.13;;;2.45;;
7031;SDS011;3557;48.880;8.328;2023-03-31T03:36:55;5.60;;;2.35;;
7031;SDS011;3557;48.880;8.328;2023-03-31T03:39:22;5.32;;;2.00;;
7031;SDS011;3557;48.880;8.328;2023-03-31T03:41:49;6.13;;;2.13;;
7031;SDS011;3557;48.880;8.328;2023-03-31T03:44:17;5.40;;;2.30;;
7031;SDS011;3557;48.880;8.328;2023-03-31T03:46:44;7.95;;;2.50;;
7031;SDS011;3557;48.880;8.328;2023-03-31T03:49:13;5.20;;;2.30;;
7031;SDS011;3557;48.880;8.328;2023-03-31T03:51:41;4.13;;;2.30;;
7031;SDS011;3557;48.880;8.328;2023-03-31T03:54:08;7.15;;;2.70;;
7031;SDS011;3557;48.880;8.328;2023-03-31T03:56:35;4.53;;;2.45;;
7031;SDS011;3557;48.880;8.328;2023-03-31T03:59:03;4.65;;;2.42;;
7031;SDS011;3557;48.880;8.328;2023-03-31T04:01:31;4.38;;;2.22;;
7031;SDS011;3557;48.880;8.328;2023-03-31T04:03:58;6.18;;;2.45;;
7031;SDS011;3557;48.880;8.328;2023-03-31T04:06:27;3.45;;;2.20;;
7031;SDS011;3557;48.880;8.328;2023-03-31T04:08:54;5.07;;;2.10;;
7031;SDS011;3557;48.880;8.328;2023-03-31T04:11:22;5.13;;;2.42;;
7031;SDS011;3557;48.880;8.328;2023-03-31T04:13:50;3.90;;;2.40;;
7031;SDS011;3557;48.880;8.328;2023-03-31T04:16:17;3.35;;;2.20;;
7031;SDS011;3557;48.880;8.328;2023-03-31T04:18:47;7.18;;;2.40;;
7031;SDS011;3557;48.880;8.328;2023-03-31T04:21:14;5.15;;;2.80;;
7031;SDS011;3557;48.880;8.328;2023-03-31T04:23:48;5.80;;;2.80;;
7031;SDS011;3557;48.880;8.328;2023-03-31T04:26:23;7.22;;;2.90;;
7031;SDS011;3557;48.880;8.328;2023-03-31T04:28:55;6.50;;;3.13;;
7031;SDS011;3557;48.880;8.328;2023-03-31T04:31:26;6.32;;;2.80;;
7031;SDS011;3557;48.880;8.328;2023-03-31T04:33:54;6.93;;;3.00;;
7031;SDS011;3557;48.880;8.328;2023-03-31T04:36:26;5.22;;;3.13;;
7031;SDS011;3557;48.880;8.328;2023-03-31T04:38:56;6.32;;;2.53;;
7031;SDS011;3557;48.880;8.328;2023-03-31T04:41:25;5.20;;;2.95;;
7031;SDS011;3557;48.880;8.328;2023-03-31T04:43:52;6.13;;;2.85;;
7031;SDS011;3557;48.880;8.328;2023-03-31T04:46:20;9.15;;;2.95;;
7031;SDS011;3557;48.880;8.328;2023-03-31T04:48:48;4.28;;;2.50;;
7031;SDS011;3557;48.880;8.328;2023-03-31T04:51:15;6.65;;;3.00;;
7031;SDS011;3557;48.880;8.328;2023-03-31T04:53:44;7.35;;;2.90;;
7031;SDS011;3557;48.880;8.328;2023-03-31T04:56:13;7.65;;;3.75;;
7031;SDS011;3557;48.880;8.328;2023-03-31T04:58:40;10.07;;;4.25;;
7031;SDS011;3557;48.880;8.328;2023-03-31T05:01:08;11.50;;;3.97;;
7031;SDS011;3557;48.880;8.328;2023-03-31T05:03:37;7.80;;;3.30;;
7031;SDS011;3557;48.880;8.328;2023-03-31T05:06:05;10.57;;;4.75;;
7031;SDS011;3557;48.880;8.328;2023-03-31T05:08:33;12.57;;;5.57;;
7031;SDS011;3557;48.880;8.328;2023-03-31T05:11:01;11.20;;;4.63;;
7031;SDS011;3557;48.880;8.328;2023-03-31T05:13:32;10.98;;;4.22;;
7031;SDS011;3557;48.880;8.328;2023-03-31T05:16:04;8.68;;;3.63;;
7031;SDS011;3557;48.880;8.328;2023-03-31T05:18:32;8.73;;;3.65;;
7031;SDS011;3557;48.880;8.328;2023-03-31T05:21:10;8.02;;;4.00;;
7031;SDS011;3557;48.880;8.328;2023-03-31T05:23:38;14.20;;;4.43;;
7031;SDS011;3557;48.880;8.328;2023-03-31T05:26:06;10.63;;;4.35;;
7031;SDS011;3557;48.880;8.328;2023-03-31T05:28:35;8.82;;;4.57;;
7031;SDS011;3557;48.880;8.328;2023-03-31T05:31:03;9.23;;;4.68;;
7031;SDS011;3557;48.880;8.328;2023-03-31T05:33:32;9.60;;;4.30;;
7031;SDS011;3557;48.880;8.328;2023-03-31T05:36:04;10.85;;;4.75;;
7031;SDS011;3557;48.880;8.328;2023-03-31T05:38:33;9.05;;;4.32;;
7031;SDS011;3557;48.880;8.328;2023-03-31T05:41:00;8.10;;;4.55;;
7031;SDS011;3557;48.880;8.328;2023-03-31T05:43:28;8.75;;;4.50;;
7031;SDS011;3557;48.880;8.328;2023-03-31T05:45:57;9.93;;;5.00;;
7031;SDS011;3557;48.880;8.328;2023-03-31T05:48:24;10.00;;;5.22;;
7031;SDS011;3557;48.880;8.328;2023-03-31T05:50:54;11.77;;;5.07;;
7031;SDS011;3557;48.880;8.328;2023-03-31T05:53:23;11.43;;;5.03;;
7031;SDS011;3557;48.880;8.328;2023-03-31T05:55:55;7.57;;;4.15;;
7031;SDS011;3557;48.880;8.328;2023-03-31T05:58:23;8.88;;;4.70;;
7031;SDS011;3557;48.880;8.328;2023-03-31T06:01:00;8.38;;;4.20;;
7031;SDS011;3557;48.880;8.328;2023-03-31T06:03:30;7.28;;;4.60;;
7031;SDS011;3557;48.880;8.328;2023-03-31T06:05:57;7.30;;;3.85;;
7031;SDS011;3557;48.880;8.328;2023-03-31T06:08:26;10.18;;;4.28;;
7031;SDS011;3557;48.880;8.328;2023-03-31T06:10:53;8.90;;;4.65;;
7031;SDS011;3557;48.880;8.328;2023-03-31T06:13:21;6.30;;;3.47;;
7031;SDS011;3557;48.880;8.328;2023-03-31T06:15:52;11.23;;;4.55;;
7031;SDS011;3557;48.880;8.328;2023-03-31T06:18:21;11.88;;;4.60;;
7031;SDS011;3557;48.880;8.328;2023-03-31T06:20:49;7.88;;;4.70;;
7031;SDS011;3557;48.880;8.328;2023-03-31T06:23:17;8.65;;;5.13;;
7031;SDS011;3557;48.880;8.328;2023-03-31T06:25:44;14.85;;;4.70;;
7031;SDS011;3557;48.880;8.328;2023-03-31T06:28:12;7.53;;;4.60;;
7031;SDS011;3557;48.880;8.328;2023-03-31T06:30:40;8.38;;;4.50;;
7031;SDS011;3557;48.880;8.328;2023-03-31T06:33:08;10.52;;;4.68;;
7031;SDS011;3557;48.880;8.328;2023-03-31T06:35:37;9.98;;;4.45;;
7031;SDS011;3557;48.880;8.328;2023-03-31T06:38:07;7.00;;;4.03;;
7031;SDS011;3557;48.880;8.328;2023-03-31T06:40:34;4.60;;;3.50;;
7031;SDS011;3557;48.880;8.328;2023-03-31T06:43:02;8.30;;;3.40;;
7031;SDS011;3557;48.880;8.328;2023-03-31T06:45:29;5.57;;;3.20;;
7031;SDS011;3557;48.880;8.328;2023-03-31T06:47:57;7.88;;;2.97;;
7031;SDS011;3557;48.880;8.328;2023-03-31T06:50:24;4.57;;;2.75;;
7031;SDS011;3557;48.880;8.328;2023-03-31T06:52:53;6.15;;;2.42;;
7031;SDS011;3557;48.880;8.328;2023-03-31T06:55:20;4.38;;;2.80;;
7031;SDS011;3557;48.880;8.328;2023-03-31T06:57:48;4.72;;;2.67;;
7031;SDS011;3557;48.880;8.328;2023-03-31T07:00:16;4.20;;;2.42;;
7031;SDS011;3557;48.880;8.328;2023-03-31T07:02:44;4.00;;;2.00;;
7031;SDS011;3557;48.880;8.328;2023-03-31T07:05:12;3.95;;;2.08;;
7031;SDS011;3557;48.880;8.328;2023-03-31T07:07:39;3.72;;;1.92;;
7031;SDS011;3557;48.880;8.328;2023-03-31T07:10:08;3.05;;;1.85;;
7031;SDS011;3557;48.880;8.328;2023-03-31T07:12:36;1.65;;;1.55;;
7031;SDS011;3557;48.880;8.328;2023-03-31T07:15:04;2.42;;;1.73;;
7031;SDS011;3557;48.880;8.328;2023-03-31T07:17:33;4.35;;;1.52;;
7031;SDS011;3557;48.880;8.328;2023-03-31T07:20:01;3.08;;;1.55;;
7031;SDS011;3557;48.880;8.328;2023-03-31T07:22:30;2.20;;;1.40;;
7031;SDS011;3557;48.880;8.328;2023-03-31T07:24:57;3.55;;;1.55;;
7031;SDS011;3557;48.880;8.328;2023-03-31T07:27:26;3.40;;;1.67;;
7031;SDS011;3557;48.880;8.328;2023-03-31T07:29:54;7.60;;;1.85;;
7031;SDS011;3557;48.880;8.328;2023-03-31T07:32:21;2.40;;;1.70;;
7031;SDS011;3557;48.880;8.328;2023-03-31T07:34:49;4.90;;;1.50;;
7031;SDS011;3557;48.880;8.328;2023-03-31T07:37:16;2.65;;;1.55;;
7031;SDS011;3557;48.880;8.328;2023-03-31T07:39:44;2.70;;;1.52;;
7031;SDS011;3557;48.880;8.328;2023-03-31T07:42:11;2.35;;;1.40;;
7031;SDS011;3557;48.880;8.328;2023-03-31T07:44:40;5.72;;;1.50;;
7031;SDS011;3557;48.880;8.328;2023-03-31T07:47:07;6.95;;;1.70;;
7031;SDS011;3557;48.880;8.328;2023-03-31T07:49:35;3.15;;;1.50;;
7031;SDS011;3557;48.880;8.328;2023-03-31T07:52:03;2.90;;;1.40;;
7031;SDS011;3557;48.880;8.328;2023-03-31T07:54:31;3.38;;;1.40;;
7031;SDS011;3557;48.880;8.328;2023-03-31T07:56:58;6.72;;;2.13;;
7031;SDS011;3557;48.880;8.328;2023-03-31T07:59:28;4.13;;;1.42;;
7031;SDS011;3557;48.880;8.328;2023-03-31T08:01:57;3.45;;;1.50;;
7031;SDS011;3557;48.880;8.328;2023-03-31T08:04:25;3.55;;;2.05;;
7031;SDS011;3557;48.880;8.328;2023-03-31T08:06:53;3.88;;;1.67;;
7031;SDS011;3557;48.880;8.328;2023-03-31T08:09:20;3.35;;;1.67;;
7031;SDS011;3557;48.880;8.328;2023-03-31T08:11:48;5.05;;;1.50;;
7031;SDS011;3557;48.880;8.328;2023-03-31T08:14:17;3.33;;;1.85;;
7031;SDS011;3557;48.880;8.328;2023-03-31T08:16:44;3.45;;;1.60;;
7031;SDS011;3557;48.880;8.328;2023-03-31T08:19:13;5.57;;;1.80;;
7031;SDS011;3557;48.880;8.328;2023-03-31T08:21:41;3.83;;;1.55;;
7031;SDS011;3557;48.880;8.328;2023-03-31T08:24:08;3.83;;;1.50;;
7031;SDS011;3557;48.880;8.328;2023-03-31T08:26:35;3.33;;;1.70;;
7031;SDS011;3557;48.880;8.328;2023-03-31T08:29:03;3.85;;;1.75;;
7031;SDS011;3557;48.880;8.328;2023-03-31T08:31:30;3.55;;;1.40;;
7031;SDS011;3557;48.880;8.328;2023-03-31T08:33:58;4.10;;;1.80;;
7031;SDS011;3557;48.880;8.328;2023-03-31T08:36:28;3.45;;;1.48;;
7031;SDS011;3557;48.880;8.328;2023-03-31T08:38:55;2.00;;;1.33;;
7031;SDS011;3557;48.880;8.328;2023-03-31T08:41:29;3.85;;;1.60;;
7031;SDS011;3557;48.880;8.328;2023-03-31T08:44:06;4.97;;;1.50;;
7031;SDS011;3557;48.880;8.328;2023-03-31T08:46:38;2.63;;;1.50;;
7031;SDS011;3557;48.880;8.328;2023-03-31T08:49:06;2.45;;;1.70;;
7031;SDS011;3557;48.880;8.328;2023-03-31T08:51:42;4.72;;;1.55;;
7031;SDS011;3557;48.880;8.328;2023-03-31T08:54:14;4.30;;;1.50;;
7031;SDS011;3557;48.880;8.328;2023-03-31T08:56:45;3.55;;;1.70;;
7031;SDS011;3557;48.880;8.328;2023-03-31T08:59:16;5.05;;;1.40;;
7031;SDS011;3557;48.880;8.328;2023-03-31T09:01:54;2.00;;;1.48;;
7031;SDS011;3557;48.880;8.328;2023-03-31T09:07:20;3.53;;;1.52;;
7031;SDS011;3557;48.880;8.328;2023-03-31T09:09:54;3.30;;;1.50;;
7031;SDS011;3557;48.880;8.328;2023-03-31T09:12:33;3.83;;;1.70;;
7031;SDS011;3557;48.880;8.328;2023-03-31T09:15:08;3.95;;;1.55;;
7031;SDS011;3557;48.880;8.328;2023-03-31T09:17:38;3.88;;;1.77;;
7031;SDS011;3557;48.880;8.328;2023-03-31T09:20:10;5.95;;;1.60;;
7031;SDS011;3557;48.880;8.328;2023-03-31T09:22:42;3.85;;;1.67;;
7031;SDS011;3557;48.880;8.328;2023-03-31T09:25:13;3.15;;;1.40;;
7031;SDS011;3557;48.880;8.328;2023-03-31T09:27:43;4.72;;;1.55;;
7031;SDS011;3557;48.880;8.328;2023-03-31T09:30:13;3.47;;;1.63;;
7031;SDS011;3557;48.880;8.328;2023-03-31T09:32:43;3.72;;;1.42;;
7031;SDS011;3557;48.880;8.328;2023-03-31T09:35:13;6.05;;;1.65;;
7031;SDS011;3557;48.880;8.328;2023-03-31T09:37:44;4.40;;;1.60;;
7031;SDS011;3557;48.880;8.328;2023-03-31T09:40:14;2.92;;;1.60;;
7031;SDS011;3557;48.880;8.328;2023-03-31T09:42:44;4.38;;;1.90;;
7031;SDS011;3557;48.880;8.328;2023-03-31T09:45:13;6.20;;;1.73;;
7031;SDS011;3557;48.880;8.328;2023-03-31T09:47:43;4.88;;;2.08;;
7031;SDS011;3557;48.880;8.328;2023-03-31T09:50:11;6.63;;;1.75;;
7031;SDS011;3557;48.880;8.328;2023-03-31T09:52:40;4.13;;;1.80;;
7031;SDS011;3557;48.880;8.328;2023-03-31T09:55:17;8.88;;;1.73;;
7031;SDS011;3557;48.880;8.328;2023-03-31T09:57:48;6.80;;;1.83;;
7031;SDS011;3557;48.880;8.328;2023-03-31T10:00:16;5.07;;;1.83;;
7031;SDS011;3557;48.880;8.328;2023-03-31T10:02:47;5.57;;;1.70;;
7031;SDS011;3557;48.880;8.328;2023-03-31T10:11:05;6.95;;;1.92;;
7031;SDS011;3557;48.880;8.328;2023-03-31T10:13:37;7.05;;;2.38;;
7031;SDS011;3557;48.880;8.328;2023-03-31T10:16:11;6.53;;;2.22;;
7031;SDS011;3557;48.880;8.328;2023-03-31T10:18:46;6.90;;;2.00;;
7031;SDS011;3557;48.880;8.328;2023-03-31T10:21:20;7.07;;;1.95;;
7031;SDS011;3557;48.880;8.328;2023-03-31T10:23:52;8.98;;;1.95;;
7031;SDS011;3557;48.880;8.328;2023-03-31T10:26:21;8.07;;;2.25;;
7031;SDS011;3557;48.880;8.328;2023-03-31T10:28:51;7.03;;;2.10;;
7031;SDS011;3557;48.880;8.328;2023-03-31T10:31:19;5.70;;;2.08;;
7031;SDS011;3557;48.880;8.328;2023-03-31T10:33:51;9.90;;;2.00;;
7031;SDS011;3557;48.880;8.328;2023-03-31T10:36:20;8.88;;;2.13;;
7031;SDS011;3557;48.880;8.328;2023-03-31T10:38:50;7.15;;;2.10;;
7031;SDS011;3557;48.880;8.328;2023-03-31T10:41:22;11.88;;;2.10;;
7031;SDS011;3557;48.880;8.328;2023-03-31T10:43:51;4.53;;;1.48;;
7031;SDS011;3557;48.880;8.328;2023-03-31T10:46:20;1.65;;;1.00;;
7031;SDS011;3557;48.880;8.328;2023-03-31T10:49:08;2.13;;;1.00;;
7031;SDS011;3557;48.880;8.328;2023-03-31T10:51:47;2.78;;;1.05;;
7031;SDS011;3557;48.880;8.328;2023-03-31T10:54:16;2.00;;;1.08;;
7031;SDS011;3557;48.880;8.328;2023-03-31T10:56:45;2.42;;;0.80;;
7031;SDS011;3557;48.880;8.328;2023-03-31T10:59:20;2.03;;;1.00;;
7031;SDS011;3557;48.880;8.328;2023-03-31T11:02:00;1.65;;;0.75;;
7031;SDS011;3557;48.880;8.328;2023-03-31T11:04:48;1.98;;;0.90;;
7031;SDS011;3557;48.880;8.328;2023-03-31T11:07:25;1.02;;;0.90;;
7031;SDS011;3557;48.880;8.328;2023-03-31T11:10:09;2.88;;;1.20;;
7031;SDS011;3557;48.880;8.328;2023-03-31T11:12:50;2.33;;;1.10;;
7031;SDS011;3557;48.880;8.328;2023-03-31T11:15:21;0.68;;;0.68;;
7031;SDS011;3557;48.880;8.328;2023-03-31T11:18:00;0.70;;;0.70;;
7031;SDS011;3557;48.880;8.328;2023-03-31T11:20:39;1.70;;;0.90;;
7031;SDS011;3557;48.880;8.328;2023-03-31T11:23:17;2.00;;;0.80;;
7031;SDS011;3557;48.880;8.328;2023-03-31T11:25:51;0.95;;;0.70;;
7031;SDS011;3557;48.880;8.328;2023-03-31T11:28:38;1.50;;;1.00;;
7031;SDS011;3557;48.880;8.328;2023-03-31T11:31:26;1.40;;;0.90;;
7031;SDS011;3557;48.880;8.328;2023-03-31T11:34:10;0.88;;;0.88;;
7031;SDS011;3557;48.880;8.328;2023-03-31T11:37:10;3.10;;;1.10;;
7031;SDS011;3557;48.880;8.328;2023-03-31T11:40:02;2.50;;;0.93;;
7031;SDS011;3557;48.880;8.328;2023-03-31T11:42:45;0.60;;;0.60;;
7031;SDS011;3557;48.880;8.328;2023-03-31T11:45:20;2.33;;;0.95;;
7031;SDS011;3557;48.880;8.328;2023-03-31T11:47:51;0.85;;;0.77;;
7031;SDS011;3557;48.880;8.328;2023-03-31T11:50:23;3.13;;;1.10;;
7031;SDS011;3557;48.880;8.328;2023-03-31T11:52:55;2.97;;;0.90;;
7031;SDS011;3557;48.880;8.328;2023-03-31T11:55:26;0.70;;;0.68;;
7031;SDS011;3557;48.880;8.328;2023-03-31T11:58:00;1.80;;;0.95;;
7031;SDS011;3557;48.880;8.328;2023-03-31T12:00:31;2.97;;;1.08;;
7031;SDS011;3557;48.880;8.328;2023-03-31T12:03:03;1.67;;;1.20;;
7031;SDS011;3557;48.880;8.328;2023-03-31T12:05:36;1.15;;;0.93;;
7031;SDS011;3557;48.880;8.328;2023-03-31T12:08:08;1.85;;;0.75;;
7031;SDS011;3557;48.880;8.328;2023-03-31T12:10:40;1.42;;;0.80;;
7031;SDS011;3557;48.880;8.328;2023-03-31T12:13:20;3.60;;;1.45;;
7031;SDS011;3557;48.880;8.328;2023-03-31T12:16:04;2.30;;;1.00;;
7031;SDS011;3557;48.880;8.328;2023-03-31T12:18:35;3.10;;;1.35;;
7031;SDS011;3557;48.880;8.328;2023-03-31T12:21:05;2.75;;;1.10;;
7031;SDS011;3557;48.880;8.328;2023-03-31T12:23:34;3.20;;;1.30;;
7031;SDS011;3557;48.880;8.328;2023-03-31T12:26:06;4.93;;;1.40;;
7031;SDS011;3557;48.880;8.328;2023-03-31T12:28:41;3.10;;;1.13;;
7031;SDS011;3557;48.880;8.328;2023-03-31T12:31:11;3.92;;;1.25;;
7031;SDS011;3557;48.880;8.328;2023-03-31T12:33:44;3.45;;;1.35;;
7031;SDS011;3557;48.880;8.328;2023-03-31T12:36:17;2.72;;;1.00;;
7031;SDS011;3557;48.880;8.328;2023-03-31T12:38:57;4.03;;;1.40;;
7031;SDS011;3557;48.880;8.328;2023-03-31T12:41:37;3.53;;;1.63;;
7031;SDS011;3557;48.880;8.328;2023-03-31T12:44:18;2.17;;;0.98;;
7031;SDS011;3557;48.880;8.328;2023-03-31T12:47:06;3.33;;;1.60;;
7031;SDS011;3557;48.880;8.328;2023-03-31T12:50:10;3.33;;;1.48;;
7031;SDS011;3557;48.880;8.328;2023-03-31T12:52:54;4.05;;;1.20;;
7031;SDS011;3557;48.880;8.328;2023-03-31T12:55:30;3.45;;;1.10;;
7031;SDS011;3557;48.880;8.328;2023-03-31T13:01:08;2.78;;;1.30;;
7031;SDS011;3557;48.880;8.328;2023-03-31T13:03:50;4.68;;;2.15;;
7031;SDS011;3557;48.880;8.328;2023-03-31T13:09:40;4.93;;;1.45;;
7031;SDS011;3557;48.880;8.328;2023-03-31T13:12:16;3.33;;;1.30;;
7031;SDS011;3557;48.880;8.328;2023-03-31T13:14:47;2.25;;;1.10;;
7031;SDS011;3557;48.880;8.328;2023-03-31T13:17:21;2.88;;;1.20;;
7031;SDS011;3557;48.880;8.328;2023-03-31T13:19:54;2.08;;;1.20;;
7031;SDS011;3557;48.880;8.328;2023-03-31T13:22:41;2.15;;;0.90;;
7031;SDS011;3557;48.880;8.328;2023-03-31T13:25:26;4.32;;;1.40;;
7031;SDS011;3557;48.880;8.328;2023-03-31T13:28:16;1.65;;;1.27;;
7031;SDS011;3557;48.880;8.328;2023-03-31T13:30:57;3.33;;;1.20;;
7031;SDS011;3557;48.880;8.328;2023-03-31T13:33:32;2.88;;;1.25;;
7031;SDS011;3557;48.880;8.328;2023-03-31T13:36:14;3.70;;;1.30;;
7031;SDS011;3557;48.880;8.328;2023-03-31T13:38:52;1.40;;;0.75;;
7031;SDS011;3557;48.880;8.328;2023-03-31T13:41:35;2.13;;;1.40;;
7031;SDS011;3557;48.880;8.328;2023-03-31T13:44:23;2.38;;;1.02;;
7031;SDS011;3557;48.880;8.328;2023-03-31T13:50:22;1.35;;;0.90;;
7031;SDS011;3557;48.880;8.328;2023-03-31T13:53:31;2.78;;;1.33;;
7031;SDS011;3557;48.880;8.328;2023-03-31T13:56:14;3.28;;;1.25;;
7031;SDS011;3557;48.880;8.328;2023-03-31T13:59:04;4.85;;;1.45;;
7031;SDS011;3557;48.880;8.328;2023-03-31T14:01:47;5.13;;;1.55;;
7031;SDS011;3557;48.880;8.328;2023-03-31T14:04:58;2.65;;;1.38;;
7031;SDS011;3557;48.880;8.328;2023-03-31T14:07:52;3.72;;;1.70;;
7031;SDS011;3557;48.880;8.328;2023-03-31T14:10:25;3.65;;;1.75;;
7031;SDS011;3557;48.880;8.328;2023-03-31T14:13:08;2.38;;;1.60;;
7031;SDS011;3557;48.880;8.328;2023-03-31T14:15:39;2.50;;;1.30;;
7031;SDS011;3557;48.880;8.328;2023-03-31T14:18:09;1.65;;;1.33;;
7031;SDS011;3557;48.880;8.328;2023-03-31T14:20:47;1.05;;;0.85;;
7031;SDS011;3557;48.880;8.328;2023-03-31T14:23:29;2.22;;;1.08;;
7031;SDS011;3557;48.880;8.328;2023-03-31T14:26:05;2.00;;;0.90;;
7031;SDS011;3557;48.880;8.328;2023-03-31T14:28:47;2.25;;;1.08;;
7031;SDS011;3557;48.880;8.328;2023-03-31T14:31:27;1.80;;;0.98;;
7031;SDS011;3557;48.880;8.328;2023-03-31T14:36:53;2.05;;;1.10;;
7031;SDS011;3557;48.880;8.328;2023-03-31T14:39:26;2.00;;;1.20;;
7031;SDS011;3557;48.880;8.328;2023-03-31T14:41:57;2.20;;;1.50;;
7031;SDS011;3557;48.880;8.328;2023-03-31T14:44:28;1.65;;;0.90;;
7031;SDS011;3557;48.880;8.328;2023-03-31T14:46:55;3.17;;;1.40;;
7031;SDS011;3557;48.880;8.328;2023-03-31T14:49:24;1.70;;;0.90;;
7031;SDS011;3557;48.880;8.328;2023-03-31T14:52:01;3.22;;;1.30;;
7031;SDS011;3557;48.880;8.328;2023-03-31T14:54:38;1.92;;;1.17;;
7031;SDS011;3557;48.880;8.328;2023-03-31T14:57:07;2.72;;;1.05;;
7031;SDS011;3557;48.880;8.328;2023-03-31T14:59:36;2.53;;;1.33;;
7031;SDS011;3557;48.880;8.328;2023-03-31T15:02:06;2.17;;;1.02;;
7031;SDS011;3557;48.880;8.328;2023-03-31T15:04:41;4.90;;;1.35;;
7031;SDS011;3557;48.880;8.328;2023-03-31T15:07:13;2.33;;;1.20;;
7031;SDS011;3557;48.880;8.328;2023-03-31T15:09:41;2.95;;;1.10;;
7031;SDS011;3557;48.880;8.328;2023-03-31T15:12:14;2.25;;;1.30;;
7031;SDS011;3557;48.880;8.328;2023-03-31T15:14:45;3.90;;;1.40;;
7031;SDS011;3557;48.880;8.328;2023-03-31T15:17:16;1.90;;;1.20;;
7031;SDS011;3557;48.880;8.328;2023-03-31T15:19:45;4.93;;;1.80;;
7031;SDS011;3557;48.880;8.328;2023-03-31T15:22:22;3.22;;;1.80;;
7031;SDS011;3557;48.880;8.328;2023-03-31T15:24:51;3.45;;;1.42;;
7031;SDS011;3557;48.880;8.328;2023-03-31T15:27:21;3.67;;;1.63;;
7031;SDS011;3557;48.880;8.328;2023-03-31T15:29:59;1.40;;;1.30;;
7031;SDS011;3557;48.880;8.328;2023-03-31T15:32:31;3.22;;;1.20;;
7031;SDS011;3557;48.880;8.328;2023-03-31T15:35:02;3.33;;;1.35;;
7031;SDS011;3557;48.880;8.328;2023-03-31T15:37:34;3.70;;;1.60;;
7031;SDS011;3557;48.880;8.328;2023-03-31T15:40:09;2.08;;;1.27;;
7031;SDS011;3557;48.880;8.328;2023-03-31T15:42:44;2.42;;;1.30;;
7031;SDS011;3557;48.880;8.328;2023-03-31T15:48:16;2.60;;;1.60;;
7031;SDS011;3557;48.880;8.328;2023-03-31T15:50:49;2.08;;;1.05;;
7031;SDS011;3557;48.880;8.328;2023-03-31T15:53:24;2.78;;;1.45;;
7031;SDS011;3557;48.880;8.328;2023-03-31T15:56:01;1.98;;;1.13;;
7031;SDS011;3557;48.880;8.328;2023-03-31T15:58:44;3.00;;;1.08;;
7031;SDS011;3557;48.880;8.328;2023-03-31T16:01:20;1.42;;;1.08;;
7031;SDS011;3557;48.880;8.328;2023-03-31T16:03:51;2.03;;;0.80;;
7031;SDS011;3557;48.880;8.328;2023-03-31T16:06:20;2.00;;;1.00;;
7031;SDS011;3557;48.880;8.328;2023-03-31T16:09:02;1.20;;;0.75;;
7031;SDS011;3557;48.880;8.328;2023-03-31T16:11:33;1.02;;;0.98;;
7031;SDS011;3557;48.880;8.328;2023-03-31T16:14:06;1.08;;;0.80;;
7031;SDS011;3557;48.880;8.328;2023-03-31T16:16:38;3.78;;;1.10;;
7031;SDS011;3557;48.880;8.328;2023-03-31T16:19:08;1.13;;;0.80;;
7031;SDS011;3557;48.880;8.328;2023-03-31T16:21:36;5.78;;;1.00;;